Time;durP1;ratioP1;P1;durP2;ratioP2;P2;SDS_P1;SDS_P2;PMS_P1;PMS_P2;Temp;Humidity;BMP_temperature;BMP_pressure;BME280_temperature;BME280_humidity;BME280_pressure;Samples;Min_cycle;Max_cycle;Signal;HPM_P1;HPM_P2
2023/02/12 00:01:24;;;;;;;36.53;19.67;;;;;;;;;;6147753;28;20055;-70
2023/02/12 00:04:25;;;;;;;37.85;20.05;;;;;;;;;;6144395;28;20051;-70
2023/02/12 00:07:31;;;;;;;36.20;18.95;;;;;;;;;;6145758;28;20143;-69
2023/02/12 00:10:32;;;;;;;37.25;18.65;;;;;;;;;;6148398;28;20047;-69
2023/02/12 00:13:34;;;;;;;33.05;18.45;;;;;;;;;;6147856;28;20054;-69
2023/02/12 00:16:36;;;;;;;30.50;17.92;;;;;;;;;;6145199;28;20057;-69
2023/02/12 00:19:38;;;;;;;36.75;20.23;;;;;;;;;;6147194;28;20066;-68
2023/02/12 00:22:41;;;;;;;35.97;18.63;;;;;;;;;;6146267;28;20085;-69
2023/02/12 00:25:42;;;;;;;37.13;18.92;;;;;;;;;;6151032;28;20086;-69
2023/02/12 00:28:45;;;;;;;30.38;18.05;;;;;;;;;;6148900;28;20065;-69
2023/02/12 00:31:46;;;;;;;32.17;18.10;;;;;;;;;;6150975;28;20059;-69
2023/02/12 00:34:48;;;;;;;33.50;18.42;;;;;;;;;;6149487;28;20058;-69
2023/02/12 00:37:51;;;;;;;34.72;18.23;;;;;;;;;;6153834;28;20059;-69
2023/02/12 00:40:53;;;;;;;35.47;18.95;;;;;;;;;;6151261;28;20059;-69
2023/02/12 00:43:54;;;;;;;33.60;18.85;;;;;;;;;;6149426;28;20102;-69
2023/02/12 00:46:56;;;;;;;35.67;18.55;;;;;;;;;;6152271;28;20054;-70
2023/02/12 00:49:58;;;;;;;30.75;17.67;;;;;;;;;;6151578;28;20058;-69
2023/02/12 00:53:01;;;;;;;30.55;17.17;;;;;;;;;;6152638;28;20051;-69
2023/02/12 00:56:03;;;;;;;35.35;16.98;;;;;;;;;;6148727;28;20397;-70
2023/02/12 00:59:05;;;;;;;33.35;17.33;;;;;;;;;;6151733;28;20247;-69
2023/02/12 01:02:06;;;;;;;36.58;18.27;;;;;;;;;;6150943;28;20063;-69
2023/02/12 01:05:09;;;;;;;30.30;17.40;;;;;;;;;;6146773;28;20134;-69
2023/02/12 01:08:13;;;;;;;31.35;17.45;;;;;;;;;;6149533;28;20066;-69
2023/02/12 01:11:14;;;;;;;30.25;16.75;;;;;;;;;;6150565;28;20365;-69
2023/02/12 01:14:16;;;;;;;30.77;16.80;;;;;;;;;;6148456;28;20070;-68
2023/02/12 01:17:18;;;;;;;30.88;17.88;;;;;;;;;;6149355;28;20239;-70
2023/02/12 01:20:22;;;;;;;33.28;18.30;;;;;;;;;;6149474;28;20106;-69
2023/02/12 01:23:25;;;;;;;32.35;18.50;;;;;;;;;;6149150;28;20155;-70
2023/02/12 01:26:28;;;;;;;34.30;18.02;;;;;;;;;;6151801;28;20114;-69
2023/02/12 01:29:29;;;;;;;34.60;18.40;;;;;;;;;;6150653;28;20051;-69
2023/02/12 01:32:31;;;;;;;30.48;17.48;;;;;;;;;;6147361;28;20059;-69
2023/02/12 01:35:33;;;;;;;35.97;19.27;;;;;;;;;;6149851;28;20339;-70
2023/02/12 01:38:36;;;;;;;34.90;19.45;;;;;;;;;;6148950;28;20055;-70
2023/02/12 01:41:41;;;;;;;38.83;20.00;;;;;;;;;;6152291;28;20055;-69
2023/02/12 01:44:44;;;;;;;37.45;20.60;;;;;;;;;;6146879;28;20435;-70
2023/02/12 01:47:46;;;;;;;36.85;19.60;;;;;;;;;;6150592;28;20213;-70
2023/02/12 01:50:48;;;;;;;35.10;20.27;;;;;;;;;;6148248;28;20055;-69
2023/02/12 01:53:54;;;;;;;39.17;19.50;;;;;;;;;;6151623;28;20061;-70
2023/02/12 01:56:56;;;;;;;36.35;20.63;;;;;;;;;;6147560;28;20379;-69
2023/02/12 01:59:58;;;;;;;39.17;21.38;;;;;;;;;;6150175;28;20154;-69
2023/02/12 02:03:01;;;;;;;37.85;21.73;;;;;;;;;;6150714;28;20339;-69
2023/02/12 02:06:07;;;;;;;36.90;20.27;;;;;;;;;;6147977;28;20067;-69
2023/02/12 02:09:10;;;;;;;37.35;20.88;;;;;;;;;;6145826;28;20055;-69
2023/02/12 02:15:31;;;;;;;39.53;21.65;;;;;;;;;;6149444;28;20251;-69
2023/02/12 02:18:37;;;;;;;41.33;21.38;;;;;;;;;;6145998;28;20335;-69
2023/02/12 02:22:17;;;;;;;37.25;19.70;;;;;;;;;;6147265;28;20263;-69
2023/02/12 02:25:43;;;;;;;39.38;20.00;;;;;;;;;;6070069;29;20080;-70
2023/02/12 02:28:59;;;;;;;35.47;20.42;;;;;;;;;;6048772;29;20734;-70
2023/02/12 02:32:06;;;;;;;39.35;21.10;;;;;;;;;;6071523;29;20053;-69
2023/02/12 02:35:11;;;;;;;43.30;21.00;;;;;;;;;;6072110;29;20052;-69
2023/02/12 02:38:22;;;;;;;38.67;19.92;;;;;;;;;;6073227;29;20063;-70
2023/02/12 02:41:29;;;;;;;35.28;20.20;;;;;;;;;;6071442;29;20363;-70
2023/02/12 02:44:35;;;;;;;42.05;22.73;;;;;;;;;;6071044;29;20056;-70
2023/02/12 02:47:43;;;;;;;39.80;22.05;;;;;;;;;;6071235;29;20057;-69
2023/02/12 02:50:48;;;;;;;39.20;20.63;;;;;;;;;;6073110;29;20052;-70
2023/02/12 02:53:55;;;;;;;38.60;22.13;;;;;;;;;;6072173;29;20108;-70
2023/02/12 02:57:01;;;;;;;39.60;20.70;;;;;;;;;;6133010;28;20047;-70
2023/02/12 03:00:07;;;;;;;40.45;20.88;;;;;;;;;;6151107;28;20067;-68
2023/02/12 03:03:17;;;;;;;42.95;21.52;;;;;;;;;;6143472;28;20239;-69
2023/02/12 03:06:22;;;;;;;42.30;21.63;;;;;;;;;;6146293;28;20118;-69
2023/02/12 03:09:27;;;;;;;40.92;22.60;;;;;;;;;;6149992;28;20058;-69
2023/02/12 03:12:33;;;;;;;44.78;22.38;;;;;;;;;;6147098;28;20109;-70
2023/02/12 03:15:38;;;;;;;45.75;23.08;;;;;;;;;;6149245;28;20107;-69
2023/02/12 03:18:44;;;;;;;42.40;22.98;;;;;;;;;;6148094;28;20102;-69
2023/02/12 03:21:48;;;;;;;46.40;24.20;;;;;;;;;;6146922;28;20055;-70
2023/02/12 03:24:53;;;;;;;42.97;23.27;;;;;;;;;;6149628;28;20051;-70
2023/02/12 03:28:01;;;;;;;50.60;24.27;;;;;;;;;;6148784;28;20327;-70
2023/02/12 03:31:07;;;;;;;46.60;23.33;;;;;;;;;;6148814;28;20051;-71
2023/02/12 03:34:14;;;;;;;44.70;23.38;;;;;;;;;;6146947;28;20414;-72
2023/02/12 03:37:19;;;;;;;39.95;23.65;;;;;;;;;;6149358;28;20059;-70
2023/02/12 03:40:25;;;;;;;43.47;21.98;;;;;;;;;;6148662;28;20063;-70
2023/02/12 03:43:31;;;;;;;52.63;26.75;;;;;;;;;;6144691;28;20447;-69
2023/02/12 03:46:38;;;;;;;45.13;24.75;;;;;;;;;;6147793;28;20058;-69
2023/02/12 03:49:47;;;;;;;44.10;24.30;;;;;;;;;;6147322;28;20063;-70
2023/02/12 03:52:50;;;;;;;44.30;25.65;;;;;;;;;;6145241;28;20094;-70
2023/02/12 03:55:54;;;;;;;43.88;24.98;;;;;;;;;;6149735;28;20051;-71
2023/02/12 03:58:56;;;;;;;44.97;26.08;;;;;;;;;;6149467;28;20051;-71
2023/02/12 04:01:59;;;;;;;47.08;25.35;;;;;;;;;;6148425;28;20437;-70
2023/02/12 04:05:06;;;;;;;46.53;24.58;;;;;;;;;;6151301;28;20378;-71
2023/02/12 04:08:11;;;;;;;44.25;24.02;;;;;;;;;;6153678;28;20047;-71
2023/02/12 04:11:20;;;;;;;47.08;24.98;;;;;;;;;;6152182;28;20062;-72
2023/02/12 04:14:27;;;;;;;48.00;25.88;;;;;;;;;;6148968;28;20121;-71
2023/02/12 04:17:35;;;;;;;50.88;25.48;;;;;;;;;;6152728;28;20047;-69
2023/02/12 04:20:46;;;;;;;51.90;25.67;;;;;;;;;;6151129;28;20063;-69
2023/02/12 04:23:50;;;;;;;52.10;26.33;;;;;;;;;;6151543;28;20090;-71
2023/02/12 04:26:55;;;;;;;47.75;26.23;;;;;;;;;;6152421;28;20043;-70
2023/02/12 04:30:02;;;;;;;46.33;25.67;;;;;;;;;;6152184;28;20047;-70
2023/02/12 04:33:05;;;;;;;49.72;25.63;;;;;;;;;;6151029;28;20062;-70
2023/02/12 04:36:13;;;;;;;51.63;26.60;;;;;;;;;;6151528;28;20054;-69
2023/02/12 04:39:18;;;;;;;55.67;27.35;;;;;;;;;;6154335;28;20050;-68
2023/02/12 04:42:20;;;;;;;47.38;26.92;;;;;;;;;;6152913;28;20086;-68
2023/02/12 04:45:24;;;;;;;50.72;26.90;;;;;;;;;;6150837;28;20083;-67
2023/02/12 04:48:26;;;;;;;49.92;25.05;;;;;;;;;;6152093;28;20115;-68
2023/02/12 04:51:29;;;;;;;41.60;23.20;;;;;;;;;;6149067;28;20078;-68
2023/02/12 04:54:31;;;;;;;47.78;25.30;;;;;;;;;;6146700;28;20386;-68
2023/02/12 04:57:33;;;;;;;50.22;25.67;;;;;;;;;;6153481;28;20043;-68
2023/02/12 05:00:34;;;;;;;47.70;24.85;;;;;;;;;;6148886;28;20103;-68
2023/02/12 05:03:36;;;;;;;45.42;24.00;;;;;;;;;;6148922;28;20058;-68
2023/02/12 05:06:39;;;;;;;50.95;25.75;;;;;;;;;;6150058;28;20102;-69
2023/02/12 05:09:41;;;;;;;50.20;25.08;;;;;;;;;;6152323;28;20512;-70
2023/02/12 05:12:43;;;;;;;51.05;25.67;;;;;;;;;;6150216;28;20047;-70
2023/02/12 05:15:44;;;;;;;52.97;26.85;;;;;;;;;;6151715;28;20332;-69
2023/02/12 05:18:46;;;;;;;50.00;25.85;;;;;;;;;;6150884;28;20055;-69
2023/02/12 05:21:51;;;;;;;51.17;26.50;;;;;;;;;;6149925;28;20055;-69
2023/02/12 05:24:52;;;;;;;47.65;26.27;;;;;;;;;;6148379;28;20055;-69
2023/02/12 05:27:55;;;;;;;47.65;25.48;;;;;;;;;;6150655;28;20059;-69
2023/02/12 05:30:59;;;;;;;51.28;26.52;;;;;;;;;;6148744;28;20055;-68
2023/02/12 05:34:01;;;;;;;;;;;;;;;;;;6151810;28;20059;-68
2023/02/12 05:37:04;;;;;;;48.22;24.38;;;;;;;;;;6147602;28;19933;-68
2023/02/12 05:40:07;;;;;;;46.10;25.17;;;;;;;;;;6149879;28;20095;-69
2023/02/12 05:43:09;;;;;;;49.00;24.77;;;;;;;;;;6147796;28;20050;-70
2023/02/12 05:46:11;;;;;;;53.40;24.58;;;;;;;;;;6149312;28;20059;-70
2023/02/12 05:49:13;;;;;;;52.25;25.00;;;;;;;;;;6150367;28;20055;-69
2023/02/12 05:52:16;;;;;;;46.25;24.27;;;;;;;;;;6148550;28;20059;-71
2023/02/12 05:55:18;;;;;;;46.45;25.48;;;;;;;;;;6148835;28;20046;-70
2023/02/12 05:58:19;;;;;;;51.58;25.65;;;;;;;;;;6146391;28;20067;-70
2023/02/12 06:01:23;;;;;;;44.75;23.63;;;;;;;;;;6149760;28;20243;-70
2023/02/12 06:04:26;;;;;;;51.80;25.37;;;;;;;;;;6147088;28;20062;-70
2023/02/12 06:07:29;;;;;;;43.35;24.17;;;;;;;;;;6150764;28;20342;-71
2023/02/12 06:10:31;;;;;;;47.17;25.17;;;;;;;;;;6148228;28;20266;-70
2023/02/12 06:13:33;;;;;;;47.92;24.02;;;;;;;;;;6147530;28;20106;-70
2023/02/12 06:16:35;;;;;;;49.05;26.20;;;;;;;;;;6148268;28;20102;-70
2023/02/12 06:19:37;;;;;;;45.47;24.52;;;;;;;;;;6149979;28;20098;-70
2023/02/12 06:22:40;;;;;;;52.00;24.40;;;;;;;;;;6144094;28;20055;-70
2023/02/12 06:25:42;;;;;;;41.47;24.25;;;;;;;;;;6150546;28;20047;-70
2023/02/12 06:28:43;;;;;;;41.63;23.60;;;;;;;;;;6149775;28;20051;-70
2023/02/12 06:31:45;;;;;;;45.20;24.13;;;;;;;;;;6148988;28;20059;-70
2023/02/12 06:34:47;;;;;;;47.92;25.15;;;;;;;;;;6150757;28;20331;-69
2023/02/12 06:37:50;;;;;;;45.08;23.10;;;;;;;;;;6149774;28;20051;-69
2023/02/12 06:40:51;;;;;;;41.53;22.70;;;;;;;;;;6148435;28;20259;-71
2023/02/12 06:43:53;;;;;;;44.58;22.33;;;;;;;;;;6148661;28;20065;-69
2023/02/12 06:46:56;;;;;;;42.40;22.15;;;;;;;;;;6147374;28;20386;-70
2023/02/12 06:49:58;;;;;;;48.65;23.05;;;;;;;;;;6145620;28;20059;-70
2023/02/12 06:53:01;;;;;;;46.05;23.77;;;;;;;;;;6145421;28;20110;-69
2023/02/12 06:56:03;;;;;;;42.75;23.15;;;;;;;;;;6150194;28;20051;-70
2023/02/12 06:59:05;;;;;;;43.42;22.80;;;;;;;;;;6148317;28;20228;-69
2023/02/12 07:02:07;;;;;;;38.92;22.52;;;;;;;;;;6147621;28;20051;-70
2023/02/12 07:05:09;;;;;;;41.30;23.67;;;;;;;;;;6149102;28;20117;-70
2023/02/12 07:08:12;;;;;;;47.10;24.08;;;;;;;;;;6145479;28;20353;-69
2023/02/12 07:11:14;;;;;;;43.83;23.55;;;;;;;;;;6148682;28;20323;-69
2023/02/12 07:14:16;;;;;;;51.05;25.08;;;;;;;;;;6142204;28;20863;-70
2023/02/12 07:17:18;;;;;;;46.88;24.23;;;;;;;;;;6143465;28;20328;-67
2023/02/12 07:20:20;;;;;;;43.78;25.25;;;;;;;;;;6145683;28;20147;-69
2023/02/12 07:23:23;;;;;;;41.90;23.92;;;;;;;;;;6147697;28;20055;-66
2023/02/12 07:26:24;;;;;;;42.72;24.35;;;;;;;;;;6146070;28;20113;-68
2023/02/12 07:29:26;;;;;;;42.65;23.98;;;;;;;;;;6145694;28;20077;-68
2023/02/12 07:32:28;;;;;;;39.72;24.05;;;;;;;;;;6145911;28;20059;-68
2023/02/12 07:35:29;;;;;;;47.67;25.30;;;;;;;;;;6146520;28;20051;-68
2023/02/12 07:38:34;;;;;;;45.58;25.17;;;;;;;;;;6146552;28;20047;-69
2023/02/12 07:41:36;;;;;;;43.78;25.00;;;;;;;;;;6143674;28;20354;-69
2023/02/12 07:44:38;;;;;;;44.20;25.92;;;;;;;;;;6147968;28;20059;-68
2023/02/12 07:47:40;;;;;;;50.85;26.75;;;;;;;;;;6147614;28;20051;-69
2023/02/12 07:50:41;;;;;;;39.97;23.90;;;;;;;;;;6144416;28;20051;-69
2023/02/12 07:53:45;;;;;;;45.05;24.10;;;;;;;;;;6146145;28;20109;-68
2023/02/12 07:56:46;;;;;;;39.50;24.50;;;;;;;;;;6146989;28;20054;-68
2023/02/12 07:59:48;;;;;;;43.28;26.05;;;;;;;;;;6146297;28;20096;-68
2023/02/12 08:02:52;;;;;;;41.33;25.35;;;;;;;;;;6143277;28;20059;-68
2023/02/12 08:05:54;;;;;;;43.20;24.73;;;;;;;;;;6148042;28;20100;-68
2023/02/12 08:08:58;;;;;;;42.58;25.55;;;;;;;;;;6145358;28;20047;-68
2023/02/12 08:12:00;;;;;;;41.38;25.80;;;;;;;;;;6145057;28;20059;-68
2023/02/12 08:15:02;;;;;;;43.78;25.95;;;;;;;;;;6147536;28;20095;-68
2023/02/12 08:18:03;;;;;;;41.90;26.42;;;;;;;;;;6146509;28;20070;-70
2023/02/12 08:21:07;;;;;;;44.35;25.80;;;;;;;;;;6145875;28;20172;-69
2023/02/12 08:24:11;;;;;;;46.25;26.88;;;;;;;;;;6144027;28;20063;-70
2023/02/12 08:27:12;;;;;;;44.35;27.17;;;;;;;;;;6145844;28;20071;-67
2023/02/12 08:30:14;;;;;;;49.65;29.15;;;;;;;;;;6145581;28;20062;-68
2023/02/12 08:33:16;;;;;;;46.97;28.58;;;;;;;;;;6144104;28;20062;-69
2023/02/12 08:36:19;;;;;;;42.47;27.80;;;;;;;;;;6143746;28;20274;-69
2023/02/12 08:39:23;;;;;;;46.45;28.67;;;;;;;;;;6148163;28;20082;-68
2023/02/12 08:42:26;;;;;;;50.42;29.17;;;;;;;;;;6146282;28;20052;-68
2023/02/12 08:45:28;;;;;;;48.03;30.37;;;;;;;;;;6150087;28;20061;-68
2023/02/12 08:48:29;;;;;;;51.38;30.48;;;;;;;;;;6151138;28;20059;-69
2023/02/12 08:51:34;;;;;;;49.08;30.27;;;;;;;;;;6145917;28;20054;-68
2023/02/12 08:54:37;;;;;;;50.05;29.98;;;;;;;;;;6148741;28;20048;-69
2023/02/12 08:57:39;;;;;;;47.90;30.90;;;;;;;;;;6152376;28;20047;-69
2023/02/12 09:00:40;;;;;;;47.70;30.77;;;;;;;;;;6149017;28;20043;-69
2023/02/12 09:03:42;;;;;;;50.67;29.92;;;;;;;;;;6147952;28;20406;-69
2023/02/12 09:06:45;;;;;;;54.70;31.90;;;;;;;;;;6146710;28;20209;-69
2023/02/12 09:09:48;;;;;;;59.92;31.70;;;;;;;;;;6148799;28;20253;-68
2023/02/12 09:12:50;;;;;;;50.63;32.00;;;;;;;;;;6150194;28;20105;-70
2023/02/12 09:15:52;;;;;;;52.67;31.88;;;;;;;;;;6147510;28;20334;-69
2023/02/12 09:18:54;;;;;;;53.17;32.78;;;;;;;;;;6146169;28;20066;-68
2023/02/12 09:21:56;;;;;;;51.47;33.45;;;;;;;;;;6149310;28;20051;-67
2023/02/12 09:24:59;;;;;;;55.45;34.47;;;;;;;;;;6146499;28;20047;-69
2023/02/12 09:28:01;;;;;;;51.60;33.45;;;;;;;;;;6148662;28;20114;-69
2023/02/12 09:31:05;;;;;;;52.72;34.33;;;;;;;;;;6146016;28;20055;-70
2023/02/12 09:34:07;;;;;;;54.88;35.25;;;;;;;;;;6147564;28;20054;-69
2023/02/12 09:37:09;;;;;;;51.00;33.45;;;;;;;;;;6149208;28;20335;-69
2023/02/12 09:40:18;;;;;;;53.35;34.90;;;;;;;;;;6148517;28;20283;-69
2023/02/12 09:43:27;;;;;;;51.40;34.38;;;;;;;;;;6149199;28;20046;-70
2023/02/12 09:46:30;;;;;;;52.15;34.58;;;;;;;;;;6146837;28;20059;-68
2023/02/12 09:49:43;;;;;;;55.45;35.97;;;;;;;;;;6148934;28;20047;-69
2023/02/12 09:52:45;;;;;;;55.60;36.42;;;;;;;;;;6148739;28;20165;-70
2023/02/12 09:55:48;;;;;;;54.83;36.30;;;;;;;;;;6149997;28;20053;-70
2023/02/12 09:58:52;;;;;;;52.67;36.13;;;;;;;;;;6147789;28;20047;-70
2023/02/12 10:01:53;;;;;;;52.55;34.00;;;;;;;;;;6148761;28;20371;-72
2023/02/12 10:04:55;;;;;;;49.40;33.72;;;;;;;;;;6147056;28;20117;-70
2023/02/12 10:08:08;;;;;;;55.33;35.78;;;;;;;;;;6147737;28;20055;-69
2023/02/12 10:11:23;;;;;;;51.35;35.30;;;;;;;;;;6149899;28;20058;-68
2023/02/12 10:14:48;;;;;;;56.42;35.42;;;;;;;;;;6147234;28;20051;-69
2023/02/12 10:17:56;;;;;;;50.22;35.25;;;;;;;;;;6141919;28;20063;-69
2023/02/12 10:21:06;;;;;;;54.15;35.25;;;;;;;;;;6146530;28;20051;-69
2023/02/12 10:24:27;;;;;;;50.80;34.42;;;;;;;;;;6147527;28;20388;-69
2023/02/12 10:27:38;;;;;;;48.83;34.17;;;;;;;;;;6147460;28;20094;-69
2023/02/12 10:30:44;;;;;;;47.45;33.83;;;;;;;;;;6146000;28;20059;-69
2023/02/12 10:33:48;;;;;;;51.00;33.13;;;;;;;;;;6146165;28;20374;-68
2023/02/12 10:36:52;;;;;;;49.17;33.75;;;;;;;;;;6147865;28;20057;-69
2023/02/12 10:39:57;;;;;;;53.65;33.70;;;;;;;;;;6145546;28;20236;-69
2023/02/12 10:43:01;;;;;;;49.80;33.88;;;;;;;;;;6149725;28;20311;-70
2023/02/12 10:46:02;;;;;;;47.90;33.45;;;;;;;;;;6145414;28;20054;-70
2023/02/12 10:49:06;;;;;;;47.03;31.52;;;;;;;;;;6148077;28;20159;-70
2023/02/12 10:52:13;;;;;;;47.33;31.30;;;;;;;;;;6147306;28;20058;-69
2023/02/12 10:55:25;;;;;;;41.80;30.10;;;;;;;;;;6149775;28;20099;-70
2023/02/12 10:58:28;;;;;;;44.83;29.52;;;;;;;;;;6143908;28;20106;-69
2023/02/12 11:01:32;;;;;;;45.05;30.00;;;;;;;;;;6148545;28;20059;-69
2023/02/12 11:04:34;;;;;;;40.20;28.13;;;;;;;;;;6147722;28;20126;-71
2023/02/12 11:07:47;;;;;;;42.95;28.30;;;;;;;;;;6148474;28;20114;-71
2023/02/12 11:10:49;;;;;;;38.60;27.73;;;;;;;;;;6150195;28;20411;-72
2023/02/12 11:13:57;;;;;;;36.65;25.85;;;;;;;;;;6149113;28;20055;-70
2023/02/12 11:17:00;;;;;;;37.40;25.35;;;;;;;;;;6146736;28;20047;-71
2023/02/12 11:20:04;;;;;;;36.80;25.88;;;;;;;;;;6148194;28;20242;-70
2023/02/12 11:23:21;;;;;;;39.30;25.83;;;;;;;;;;6147565;28;20343;-71
2023/02/12 11:26:27;;;;;;;35.88;26.02;;;;;;;;;;6145088;28;20231;-70
2023/02/12 11:29:32;;;;;;;33.78;24.98;;;;;;;;;;6145613;28;20122;-71
2023/02/12 11:32:34;;;;;;;37.92;25.55;;;;;;;;;;6148276;28;20346;-71
2023/02/12 11:35:35;;;;;;;34.88;23.40;;;;;;;;;;6148221;28;20349;-71
2023/02/12 11:38:39;;;;;;;35.33;24.38;;;;;;;;;;6147651;28;20068;-71
2023/02/12 11:41:41;;;;;;;33.78;24.20;;;;;;;;;;6146669;28;20055;-71
2023/02/12 11:44:51;;;;;;;36.33;24.10;;;;;;;;;;6148031;28;20066;-71
2023/02/12 11:47:53;;;;;;;32.20;23.20;;;;;;;;;;6148935;28;20063;-70
2023/02/12 11:50:57;;;;;;;31.42;22.73;;;;;;;;;;6145931;28;20043;-68
2023/02/12 11:54:00;;;;;;;31.58;23.15;;;;;;;;;;6147543;28;20335;-67
2023/02/12 11:57:01;;;;;;;35.90;24.00;;;;;;;;;;6147171;28;20091;-66
2023/02/12 12:00:11;;;;;;;30.13;22.58;;;;;;;;;;6148311;28;20051;-67
2023/02/12 12:03:15;;;;;;;31.55;23.00;;;;;;;;;;6149383;28;20055;-66
2023/02/12 12:06:28;;;;;;;30.67;23.35;;;;;;;;;;6146597;28;20055;-66
2023/02/12 12:09:34;;;;;;;30.20;23.27;;;;;;;;;;6146997;28;20054;-66
2023/02/12 12:12:41;;;;;;;28.73;22.35;;;;;;;;;;6146977;28;20051;-70
2023/02/12 12:22:36;;;;;;;;;;;;;;;;;;6149793;28;20051;-67
2023/02/12 12:25:43;;;;;;;27.42;21.50;;;;;;;;;;6150434;28;20487;-67
2023/02/12 12:28:48;;;;;;;28.63;23.25;;;;;;;;;;6153040;28;20051;-68
2023/02/12 12:31:55;;;;;;;30.13;23.88;;;;;;;;;;6152584;28;20103;-68
2023/02/12 12:34:56;;;;;;;27.30;21.27;;;;;;;;;;6152653;28;20062;-68
2023/02/12 12:38:02;;;;;;;28.30;21.92;;;;;;;;;;6148167;28;20411;-68
2023/02/12 12:41:08;;;;;;;29.70;22.50;;;;;;;;;;6152659;28;20070;-68
2023/02/12 12:44:23;;;;;;;32.95;22.98;;;;;;;;;;6151565;28;20055;-68
2023/02/12 12:47:34;;;;;;;28.95;23.33;;;;;;;;;;6149750;28;20055;-69
2023/02/12 12:50:49;;;;;;;29.42;22.52;;;;;;;;;;6151991;28;20055;-70
2023/02/12 12:54:01;;;;;;;31.48;23.23;;;;;;;;;;6154588;28;20081;-69
2023/02/12 12:57:10;;;;;;;29.73;23.17;;;;;;;;;;6151693;28;20072;-69
2023/02/12 13:00:25;;;;;;;33.55;22.92;;;;;;;;;;6150630;28;20047;-69
2023/02/12 13:04:04;;;;;;;28.77;22.42;;;;;;;;;;6153600;28;20063;-68
2023/02/12 13:07:18;;;;;;;33.28;22.88;;;;;;;;;;6152145;28;20099;-69
2023/02/12 13:10:32;;;;;;;28.80;22.35;;;;;;;;;;6153640;28;20229;-69
2023/02/12 13:13:34;;;;;;;;;;;;;;;;;;6154414;28;20347;-68
2023/02/12 13:16:39;;;;;;;29.65;22.17;;;;;;;;;;6148035;28;19919;-68
2023/02/12 13:19:51;;;;;;;32.78;24.90;;;;;;;;;;6152461;28;20059;-69
2023/02/12 13:22:59;;;;;;;36.33;25.90;;;;;;;;;;6150395;28;20087;-69
2023/02/12 13:26:06;;;;;;;30.92;25.23;;;;;;;;;;6151605;28;20069;-69
2023/02/12 13:29:13;;;;;;;33.03;24.52;;;;;;;;;;6151024;28;20055;-68
2023/02/12 13:32:17;;;;;;;31.38;23.90;;;;;;;;;;6151139;28;20389;-68
2023/02/12 13:35:22;;;;;;;29.60;23.08;;;;;;;;;;6149488;28;20059;-68
2023/02/12 13:38:26;;;;;;;28.83;21.85;;;;;;;;;;6149826;28;20055;-68
2023/02/12 13:41:29;;;;;;;28.77;21.80;;;;;;;;;;6147491;28;20055;-68
2023/02/12 13:44:35;;;;;;;28.83;21.98;;;;;;;;;;6146246;28;20077;-68
2023/02/12 13:47:44;;;;;;;31.52;22.67;;;;;;;;;;6147739;28;20079;-69
2023/02/12 13:50:53;;;;;;;30.35;24.02;;;;;;;;;;6146822;28;20094;-68
2023/02/12 13:54:04;;;;;;;30.15;24.13;;;;;;;;;;6149210;28;20047;-67
2023/02/12 13:57:10;;;;;;;31.40;23.50;;;;;;;;;;6148965;28;20042;-70
2023/02/12 14:00:45;;;;;;;32.55;23.50;;;;;;;;;;6148623;28;20317;-69
2023/02/12 14:03:47;;;;;;;27.83;21.45;;;;;;;;;;6149818;28;20067;-68
2023/02/12 14:06:59;;;;;;;28.35;22.05;;;;;;;;;;6150051;28;20055;-69
2023/02/12 14:10:04;;;;;;;25.42;20.25;;;;;;;;;;6150136;28;20055;-71
2023/02/12 14:13:16;;;;;;;27.35;21.05;;;;;;;;;;6148847;28;20052;-70
2023/02/12 14:16:21;;;;;;;26.83;21.38;;;;;;;;;;6148033;28;20062;-68
2023/02/12 14:19:53;;;;;;;27.73;22.33;;;;;;;;;;6146827;28;20058;-67
2023/02/12 14:23:18;;;;;;;54.65;24.92;;;;;;;;;;6147451;28;20074;-69
2023/02/12 14:26:22;;;;;;;29.95;23.23;;;;;;;;;;6147880;28;20055;-69
2023/02/12 14:29:24;;;;;;;29.90;22.92;;;;;;;;;;6147909;28;20349;-69
2023/02/12 14:33:00;;;;;;;28.38;22.45;;;;;;;;;;6147808;28;20516;-71
2023/02/12 14:36:16;;;;;;;30.40;23.65;;;;;;;;;;6147833;28;20127;-70
2023/02/12 14:39:30;;;;;;;30.38;22.77;;;;;;;;;;6145963;28;20083;-69
2023/02/12 14:42:53;;;;;;;28.48;21.48;;;;;;;;;;6149082;28;20150;-69
2023/02/12 14:45:55;;;;;;;24.92;19.60;;;;;;;;;;6146515;28;20371;-70
2023/02/12 14:49:03;;;;;;;26.92;19.33;;;;;;;;;;6147028;28;20055;-69
2023/02/12 14:52:13;;;;;;;26.15;21.00;;;;;;;;;;6148586;28;20570;-71
2023/02/12 14:55:26;;;;;;;28.20;22.67;;;;;;;;;;6146378;28;20267;-68
2023/02/12 14:58:30;;;;;;;28.73;22.63;;;;;;;;;;6144681;28;20060;-68
2023/02/12 15:01:35;;;;;;;28.67;22.35;;;;;;;;;;6145837;28;20470;-68
2023/02/12 15:04:38;;;;;;;28.30;22.55;;;;;;;;;;6143989;28;20225;-68
2023/02/12 15:07:44;;;;;;;28.98;21.23;;;;;;;;;;6146615;28;20064;-68
2023/02/12 15:10:49;;;;;;;27.48;20.67;;;;;;;;;;6147878;28;20047;-68
2023/02/12 15:13:56;;;;;;;27.35;20.67;;;;;;;;;;6149351;28;20082;-68
2023/02/12 15:17:00;;;;;;;25.63;20.90;;;;;;;;;;6136295;28;20049;-68
2023/02/12 15:20:06;;;;;;;27.35;21.42;;;;;;;;;;6145551;28;20055;-69
2023/02/12 15:23:47;;;;;;;28.63;21.45;;;;;;;;;;6145690;28;20067;-68
2023/02/12 15:26:51;;;;;;;31.30;22.20;;;;;;;;;;6131669;28;20059;-68
2023/02/12 15:29:53;;;;;;;29.50;22.23;;;;;;;;;;6144447;28;20071;-67
2023/02/12 15:32:57;;;;;;;28.17;21.17;;;;;;;;;;6145732;28;20054;-68
2023/02/12 15:35:59;;;;;;;28.02;20.83;;;;;;;;;;6145442;28;20090;-68
2023/02/12 15:39:03;;;;;;;28.98;21.73;;;;;;;;;;6146702;28;20122;-67
2023/02/12 15:42:06;;;;;;;;;;;;;;;;;;6147614;28;20058;-69
2023/02/12 15:45:21;;;;;;;29.70;22.45;;;;;;;;;;6147617;28;19969;-68
2023/02/12 15:48:24;;;;;;;28.17;22.63;;;;;;;;;;6146179;28;20078;-69
2023/02/12 15:51:28;;;;;;;30.98;23.10;;;;;;;;;;6145548;28;20042;-68
2023/02/12 15:54:30;;;;;;;31.25;22.92;;;;;;;;;;6149663;28;20098;-68
2023/02/12 15:57:33;;;;;;;33.67;22.95;;;;;;;;;;6150308;28;20274;-68
2023/02/12 16:00:40;;;;;;;31.80;22.25;;;;;;;;;;6150273;28;20248;-67
2023/02/12 16:03:41;;;;;;;29.88;22.00;;;;;;;;;;6151726;28;20394;-66
2023/02/12 16:06:43;;;;;;;31.60;22.63;;;;;;;;;;6151799;28;20115;-67
2023/02/12 16:09:45;;;;;;;29.77;22.83;;;;;;;;;;6154838;28;20057;-67
2023/02/12 16:12:49;;;;;;;32.88;23.88;;;;;;;;;;6148714;28;20235;-67
2023/02/12 16:16:04;;;;;;;34.47;22.10;;;;;;;;;;6150840;28;20095;-67
2023/02/12 16:19:16;;;;;;;32.33;22.55;;;;;;;;;;6144895;28;20066;-67
2023/02/12 16:22:19;;;;;;;32.28;21.45;;;;;;;;;;6148582;28;20051;-67
2023/02/12 16:25:23;;;;;;;31.48;21.85;;;;;;;;;;6153126;28;20729;-67
2023/02/12 16:28:27;;;;;;;;;;;;;;;;;;6151447;28;20170;-67
2023/02/12 16:31:29;;;;;;;28.67;19.52;;;;;;;;;;6148555;28;19919;-67
2023/02/12 16:34:33;;;;;;;33.45;21.23;;;;;;;;;;6146785;28;20065;-68
2023/02/12 16:37:49;;;;;;;30.17;20.25;;;;;;;;;;6150920;28;20062;-67
2023/02/12 16:41:23;;;;;;;28.08;20.45;;;;;;;;;;6149214;28;20102;-67
2023/02/12 16:44:30;;;;;;;26.13;18.70;;;;;;;;;;6150688;28;20074;-67
2023/02/12 16:47:32;;;;;;;27.75;19.58;;;;;;;;;;6149338;28;20235;-67
2023/02/12 16:50:35;;;;;;;26.83;19.60;;;;;;;;;;6148626;28;20055;-67
2023/02/12 16:53:45;;;;;;;27.08;18.40;;;;;;;;;;6150420;28;20122;-67
2023/02/12 16:56:47;;;;;;;29.52;19.80;;;;;;;;;;6151572;28;20073;-67
2023/02/12 16:59:50;;;;;;;28.50;19.00;;;;;;;;;;6150283;28;20055;-67
2023/02/12 17:02:54;;;;;;;29.40;18.98;;;;;;;;;;6149286;28;20055;-67
2023/02/12 17:05:56;;;;;;;36.97;20.45;;;;;;;;;;6147382;28;20047;-67
2023/02/12 17:08:57;;;;;;;29.55;20.90;;;;;;;;;;6149787;28;20102;-67
2023/02/12 17:11:59;;;;;;;30.75;20.38;;;;;;;;;;6151123;28;20083;-67
2023/02/12 17:15:04;;;;;;;27.50;20.10;;;;;;;;;;6149336;28;20106;-67
2023/02/12 17:18:06;;;;;;;28.80;19.80;;;;;;;;;;6148979;28;20095;-67
2023/02/12 17:21:15;;;;;;;33.35;20.63;;;;;;;;;;6151045;28;20134;-67
2023/02/12 17:24:20;;;;;;;36.15;20.67;;;;;;;;;;6147902;28;20066;-67
2023/02/12 17:27:21;;;;;;;33.40;22.10;;;;;;;;;;6149924;28;20102;-67
2023/02/12 17:30:25;;;;;;;32.13;21.15;;;;;;;;;;6151324;28;20114;-67
2023/02/12 17:33:27;;;;;;;35.60;23.77;;;;;;;;;;6147158;28;20062;-67
2023/02/12 17:36:28;;;;;;;35.08;23.83;;;;;;;;;;6147770;28;20114;-67
2023/02/12 17:39:30;;;;;;;36.63;24.23;;;;;;;;;;6150115;28;20089;-67
2023/02/12 17:42:32;;;;;;;35.72;23.67;;;;;;;;;;6149572;28;20118;-66
2023/02/12 17:45:35;;;;;;;37.42;25.80;;;;;;;;;;6147354;28;20059;-67
2023/02/12 17:48:36;;;;;;;41.85;27.40;;;;;;;;;;6147893;28;20043;-67
2023/02/12 17:51:38;;;;;;;37.08;25.63;;;;;;;;;;6149852;28;20050;-66
2023/02/12 17:54:40;;;;;;;37.88;25.75;;;;;;;;;;6146561;28;20082;-67
2023/02/12 17:57:42;;;;;;;39.75;26.05;;;;;;;;;;6145215;28;20261;-67
2023/02/12 18:00:45;;;;;;;41.22;26.95;;;;;;;;;;6149788;28;20266;-68
2023/02/12 18:03:46;;;;;;;37.63;25.85;;;;;;;;;;6147715;28;20062;-68
2023/02/12 18:06:48;;;;;;;41.65;26.88;;;;;;;;;;6147412;28;20059;-68
2023/02/12 18:09:50;;;;;;;40.63;26.30;;;;;;;;;;6147928;28;20131;-68